Skip Navigation Links Skip Navigation Links

Current Weather

Doylestown, Penn.

For information only: do not use for flight planning or navigation.
Latest weather
Observation time Friday, August 14, 2020 11:54 AM EDT
Local time Friday, August 14, 2020 12:36 PM EDT
Flight conditions Visual Meteorological Conditions
Winds
Wind direction variable
Wind speed 6 mph
Visibility 10 mi.
Sky condition
Ceiling unlimited
Cloud layer few clouds 3,200 ft.
Temperature 84°F
Dewpoint 66°F
Altimeter 30.01 in.Hg
Derived measurements
Relative humidity 55%
Heat index 86°F
Density altitude 2187 ft.
Sea-level pressure 29.99 in.Hg
Remarks
Fully automated report.
Automated weather observing station with precipitation discriminator.
METAR KDYL 141554Z AUTO VRB05KT 10SM FEW032 29/19 A3001 RMK AO2 SLP155 T02890189

Settings

Location code

InnerDrive.Weather 4.0.6770.0 Release CLR 4.0.30319.42000
Copyright ©2018 Inner Drive Technology. All rights reserved. Portions Copyright ©1986-2018 David Braverman.

Find weather

Site navigation


Skip Navigation Links

Place info

Page info

PayPal - The safer, easier way to pay online!

Return home.

Copyright ©2020 Inner Drive Technology. Purveyors of fine, hand-crafted computer software. Page printed 2020-08-14T16:36:28 UTC.